Aviation Digital Data Service (ADDS)

Output produced by METARs form (2145 UTC 17 June 2019)
found at http://www.aviationweather.gov/metar/data/
 
METAR text: RORS 171000Z 15004KT 9999 -SHRA FEW012 BKN019 27/26 Q1010
Conditions at: RORS (SHIMOJI-SHIMA IS, JP) observed 1000 UTC 17 June 2019
Temperature: 27.0°C (81°F)
Dewpoint: 26.0°C (79°F) [RH = 94%]
Pressure (altimeter): 29.82 inches Hg (1010.0 mb)
Winds: from the SSE (150 degrees) at 5 MPH (4 knots; 2.1 m/s)
Visibility: 6 or more miles (10+ km)
Ceiling: 1900 feet AGL
Clouds: few clouds at 1200 feet AGL
broken clouds at 1900 feet AGL
Weather: -SHRA  (light rain showers)

METAR text: RORS 170900Z 14005KT 9999 FEW010 BKN021 27/26 Q1010
Conditions at: RORS (SHIMOJI-SHIMA IS, JP) observed 0900 UTC 17 June 2019
Temperature: 27.0°C (81°F)
Dewpoint: 26.0°C (79°F) [RH = 94%]
Pressure (altimeter): 29.82 inches Hg (1010.0 mb)
Winds: from the SE (140 degrees) at 6 MPH (5 knots; 2.6 m/s)
Visibility: 6 or more miles (10+ km)
Ceiling: 2100 feet AGL
Clouds: few clouds at 1000 feet AGL
broken clouds at 2100 feet AGL
Weather: no significant weather observed at this time

METAR text: RORS 170800Z 13006KT 9999 FEW008 SCT010 BKN070 28/26 Q1010
Conditions at: RORS (SHIMOJI-SHIMA IS, JP) observed 0800 UTC 17 June 2019
Temperature: 28.0°C (82°F)
Dewpoint: 26.0°C (79°F) [RH = 89%]
Pressure (altimeter): 29.82 inches Hg (1010.0 mb)
Winds: from the SE (130 degrees) at 7 MPH (6 knots; 3.1 m/s)
Visibility: 6 or more miles (10+ km)
Ceiling: 7000 feet AGL
Clouds: few clouds at 800 feet AGL
scattered clouds at 1000 feet AGL
broken clouds at 7000 feet AGL
Weather: no significant weather observed at this time

METAR text: RORS 170700Z 15007KT 9999 VCSH FEW009 SCT050 BKN070 27/26 Q1010
Conditions at: RORS (SHIMOJI-SHIMA IS, JP) observed 0700 UTC 17 June 2019
Temperature: 27.0°C (81°F)
Dewpoint: 26.0°C (79°F) [RH = 94%]
Pressure (altimeter): 29.82 inches Hg (1010.0 mb)
Winds: from the SSE (150 degrees) at 8 MPH (7 knots; 3.6 m/s)
Visibility: 6 or more miles (10+ km)
Ceiling: 7000 feet AGL
Clouds: few clouds at 900 feet AGL
scattered clouds at 5000 feet AGL
broken clouds at 7000 feet AGL
Weather: VCSH  (showers in vicinity)

METAR text: RORS 170600Z 16006KT 9999 -RA FEW009 SCT060 BKN080 27/25 Q1010
Conditions at: RORS (SHIMOJI-SHIMA IS, JP) observed 0600 UTC 17 June 2019
Temperature: 27.0°C (81°F)
Dewpoint: 25.0°C (77°F) [RH = 89%]
Pressure (altimeter): 29.82 inches Hg (1010.0 mb)
Winds: from the SSE (160 degrees) at 7 MPH (6 knots; 3.1 m/s)
Visibility: 6 or more miles (10+ km)
Ceiling: 8000 feet AGL
Clouds: few clouds at 900 feet AGL
scattered clouds at 6000 feet AGL
broken clouds at 8000 feet AGL
Weather: -RA  (light rain)

METAR text: RORS 170500Z 20005KT 180V240 9999 -RA FEW008 SCT060 BKN070 26/25 Q1011
Conditions at: RORS (SHIMOJI-SHIMA IS, JP) observed 0500 UTC 17 June 2019
Temperature: 26.0°C (79°F)
Dewpoint: 25.0°C (77°F) [RH = 94%]
Pressure (altimeter): 29.85 inches Hg (1011.0 mb)
Winds: from the SSW (200 degrees) at 6 MPH (5 knots; 2.6 m/s)
Visibility: 6 or more miles (10+ km)
Ceiling: 7000 feet AGL
Clouds: few clouds at 800 feet AGL
scattered clouds at 6000 feet AGL
broken clouds at 7000 feet AGL
Weather: -RA  (light rain)

METAR text: RORS 170400Z 21010KT 180V250 7000 -SHRA FEW003 SCT005 FEW015TCU BKN050 26/25 Q1010
Conditions at: RORS (SHIMOJI-SHIMA IS, JP) observed 0400 UTC 17 June 2019
Temperature: 26.0°C (79°F)
Dewpoint: 25.0°C (77°F) [RH = 94%]
Pressure (altimeter): 29.82 inches Hg (1010.0 mb)
Winds: from the SSW (210 degrees) at 12 MPH (10 knots; 5.1 m/s)
Visibility: 4 miles ( 7 km)
Ceiling: 5000 feet AGL
Clouds: few clouds at 300 feet AGL
scattered clouds at 500 feet AGL
few clouds at 1500 feet AGL
broken clouds at 5000 feet AGL
Weather: -SHRA  (light rain showers)

METAR text: RORS 170313Z 19013KT 2000 R17/1200VP2000D +SHRA FEW005 BKN010 FEW020TCU BKN030 26/25 Q1011 RMK 1ST005 5CU010 1TCU020 7CU030 A2986 TCU OHD MOV NE
Conditions at: RORS (SHIMOJI-SHIMA IS, JP) observed 0313 UTC 17 June 2019
Temperature: 26.0°C (79°F)
Dewpoint: 25.0°C (77°F) [RH = 94%]
Pressure (altimeter): 29.85 inches Hg (1011.0 mb)
Winds: from the S (190 degrees) at 15 MPH (13 knots; 6.7 m/s)
Visibility: 1.24 miles (2.00 km)
Ceiling: 1000 feet AGL
Clouds: few clouds at 500 feet AGL
broken clouds at 1000 feet AGL
few clouds at 2000 feet AGL
broken clouds at 3000 feet AGL
Weather: +SHRA  (heavy rain showers)

METAR text: RORS 170307Z 19013KT 3000 R17/P2000N SHRA FEW005 BKN010 FEW020TCU BKN030 27/25 Q1011 RMK 1ST005 5CU010 1TCU020 7CU030 A2986 TCU 5KM SW MOV NE
Conditions at: RORS (SHIMOJI-SHIMA IS, JP) observed 0307 UTC 17 June 2019
Temperature: 27.0°C (81°F)
Dewpoint: 25.0°C (77°F) [RH = 89%]
Pressure (altimeter): 29.85 inches Hg (1011.0 mb)
Winds: from the S (190 degrees) at 15 MPH (13 knots; 6.7 m/s)
Visibility: 1.86 miles (2.99 km)
Ceiling: 1000 feet AGL
Clouds: few clouds at 500 feet AGL
broken clouds at 1000 feet AGL
few clouds at 2000 feet AGL
broken clouds at 3000 feet AGL
Weather: SHRA  (rain showers)

METAR text: RORS 170300Z 19014KT 160V220 9999 -SHRA FEW008 BKN010 FEW020TCU BKN039 27/25 Q1011
Conditions at: RORS (SHIMOJI-SHIMA IS, JP) observed 0300 UTC 17 June 2019
Temperature: 27.0°C (81°F)
Dewpoint: 25.0°C (77°F) [RH = 89%]
Pressure (altimeter): 29.85 inches Hg (1011.0 mb)
Winds: from the S (190 degrees) at 16 MPH (14 knots; 7.2 m/s)
Visibility: 6 or more miles (10+ km)
Ceiling: 1000 feet AGL
Clouds: few clouds at 800 feet AGL
broken clouds at 1000 feet AGL
few clouds at 2000 feet AGL
broken clouds at 3900 feet AGL
Weather: -SHRA  (light rain showers)

METAR text: RORS 170200Z 17009KT 150V220 9999 VCSH SCT009 SCT050 BKN070 29/27 Q1011
Conditions at: RORS (SHIMOJI-SHIMA IS, JP) observed 0200 UTC 17 June 2019
Temperature: 29.0°C (84°F)
Dewpoint: 27.0°C (81°F) [RH = 89%]
Pressure (altimeter): 29.85 inches Hg (1011.0 mb)
Winds: from the S (170 degrees) at 10 MPH (9 knots; 4.6 m/s)
Visibility: 6 or more miles (10+ km)
Ceiling: 7000 feet AGL
Clouds: scattered clouds at 900 feet AGL
scattered clouds at 5000 feet AGL
broken clouds at 7000 feet AGL
Weather: VCSH  (showers in vicinity)

METAR text: RORS 170100Z 14008KT 9999 -SHRA FEW005 SCT011 BKN029 28/27 Q1011
Conditions at: RORS (SHIMOJI-SHIMA IS, JP) observed 0100 UTC 17 June 2019
Temperature: 28.0°C (82°F)
Dewpoint: 27.0°C (81°F) [RH = 94%]
Pressure (altimeter): 29.85 inches Hg (1011.0 mb)
Winds: from the SE (140 degrees) at 9 MPH (8 knots; 4.1 m/s)
Visibility: 6 or more miles (10+ km)
Ceiling: 2900 feet AGL
Clouds: few clouds at 500 feet AGL
scattered clouds at 1100 feet AGL
broken clouds at 2900 feet AGL
Weather: -SHRA  (light rain showers)

METAR text: RORS 170000Z 11006KT 9999 -SHRA FEW007 BKN017 BKN040 27/26 Q1011
Conditions at: RORS (SHIMOJI-SHIMA IS, JP) observed 0000 UTC 17 June 2019
Temperature: 27.0°C (81°F)
Dewpoint: 26.0°C (79°F) [RH = 94%]
Pressure (altimeter): 29.85 inches Hg (1011.0 mb)
Winds: from the ESE (110 degrees) at 7 MPH (6 knots; 3.1 m/s)
Visibility: 6 or more miles (10+ km)
Ceiling: 1700 feet AGL
Clouds: few clouds at 700 feet AGL
broken clouds at 1700 feet AGL
broken clouds at 4000 feet AGL
Weather: -SHRA  (light rain showers)

METAR text: RORS 162300Z 10007KT 9999 FEW008 SCT015 BKN050 27/26 Q1011
Conditions at: RORS (SHIMOJI-SHIMA IS, JP) observed 2300 UTC 16 June 2019
Temperature: 27.0°C (81°F)
Dewpoint: 26.0°C (79°F) [RH = 94%]
Pressure (altimeter): 29.85 inches Hg (1011.0 mb)
Winds: from the E (100 degrees) at 8 MPH (7 knots; 3.6 m/s)
Visibility: 6 or more miles (10+ km)
Ceiling: 5000 feet AGL
Clouds: few clouds at 800 feet AGL
scattered clouds at 1500 feet AGL
broken clouds at 5000 feet AGL
Weather: no significant weather observed at this time

METAR text: RORS 162200Z 09006KT 9999 VCSH FEW023 FEW025CB SCT039 BKN120 27/25 Q1010
Conditions at: RORS (SHIMOJI-SHIMA IS, JP) observed 2200 UTC 16 June 2019
Temperature: 27.0°C (81°F)
Dewpoint: 25.0°C (77°F) [RH = 89%]
Pressure (altimeter): 29.82 inches Hg (1010.0 mb)
Winds: from the E (90 degrees) at 7 MPH (6 knots; 3.1 m/s)
Visibility: 6 or more miles (10+ km)
Ceiling: 12000 feet AGL
Clouds: few clouds at 2300 feet AGL
few clouds at 2500 feet AGL
scattered clouds at 3900 feet AGL
broken clouds at 12000 feet AGL
Weather: VCSH  (showers in vicinity)

METAR text: RORS 161000Z 10010KT 9999 BKN022 BKN090 27/22 Q1009
Conditions at: RORS (SHIMOJI-SHIMA IS, JP) observed 1000 UTC 16 June 2019
Temperature: 27.0°C (81°F)
Dewpoint: 22.0°C (72°F) [RH = 74%]
Pressure (altimeter): 29.79 inches Hg (1009.0 mb)
Winds: from the E (100 degrees) at 12 MPH (10 knots; 5.1 m/s)
Visibility: 6 or more miles (10+ km)
Ceiling: 2200 feet AGL
Clouds: broken clouds at 2200 feet AGL
broken clouds at 9000 feet AGL
Weather: no significant weather observed at this time